Time;durP1;ratioP1;P1;durP2;ratioP2;P2;SDS_P1;SDS_P2;PMS_P1;PMS_P2;Temp;Humidity;BMP_temperature;BMP_pressure;BME280_temperature;BME280_humidity;BME280_pressure;Samples;Min_cycle;Max_cycle;Signal;HPM_P1;HPM_P2
2021/05/28 00:00:58;;;;;;;26.00;16.50;;;5.50;99.90;;;;;;4161984;28;20049;-77
2021/05/28 00:02:59;;;;;;;28.30;16.52;;;5.50;99.90;;;;;;4163192;28;20384;-78
2021/05/28 00:04:59;;;;;;;25.88;16.90;;;5.40;99.90;;;;;;4163213;28;20033;-78
2021/05/28 00:07:00;;;;;;;34.97;17.55;;;5.40;99.90;;;;;;4163045;28;20044;-77
2021/05/28 00:09:05;;;;;;;35.25;17.23;;;5.40;99.90;;;;;;4163060;28;20044;-77
2021/05/28 00:11:07;;;;;;;30.30;17.33;;;5.40;99.90;;;;;;4162530;28;20037;-77
2021/05/28 00:13:08;;;;;;;33.50;16.55;;;5.40;99.90;;;;;;4162385;28;20091;-77
2021/05/28 00:15:10;;;;;;;33.17;18.38;;;5.50;99.90;;;;;;4161139;28;20113;-78
2021/05/28 00:17:11;;;;;;;33.33;17.63;;;5.60;99.90;;;;;;4157657;28;20025;-77
2021/05/28 00:19:12;;;;;;;30.20;18.13;;;5.60;99.90;;;;;;4176771;28;20276;-77
2021/05/28 00:21:12;;;;;;;30.83;16.92;;;5.60;99.90;;;;;;4158468;28;20037;-77
2021/05/28 00:23:13;;;;;;;35.65;18.23;;;5.60;99.90;;;;;;4162656;28;20025;-76
2021/05/28 00:25:14;;;;;;;39.05;19.08;;;5.60;99.90;;;;;;4155722;28;20095;-77
2021/05/28 00:27:15;;;;;;;32.08;15.90;;;5.60;99.90;;;;;;4161550;28;20377;-77
2021/05/28 00:29:16;;;;;;;37.28;17.90;;;5.50;99.90;;;;;;4155493;28;20488;-77
2021/05/28 00:31:18;;;;;;;35.20;17.85;;;;;;;;;;4158857;28;20033;-77
2021/05/28 00:33:19;;;;;;;27.00;14.98;;;5.40;99.90;;;;;;4158617;28;20042;-77
2021/05/28 00:35:20;;;;;;;30.42;16.42;;;5.30;99.90;;;;;;4163687;28;20034;-77
2021/05/28 00:37:20;;;;;;;37.03;15.00;;;5.20;99.90;;;;;;4163179;28;20033;-77
2021/05/28 00:39:21;;;;;;;32.88;16.08;;;5.20;99.90;;;;;;4161872;28;20057;-77
2021/05/28 00:41:22;;;;;;;31.88;17.77;;;5.10;99.90;;;;;;4162610;28;20029;-77
2021/05/28 00:43:25;;;;;;;31.25;17.58;;;5.10;99.90;;;;;;4161182;28;20044;-77
2021/05/28 00:45:25;;;;;;;31.40;16.67;;;5.10;99.90;;;;;;4157148;28;20045;-77
2021/05/28 00:47:26;;;;;;;22.95;13.70;;;5.00;99.90;;;;;;4163546;28;20087;-77
2021/05/28 00:49:26;;;;;;;34.30;18.60;;;5.00;99.90;;;;;;4178708;28;20032;-77
2021/05/28 00:51:27;;;;;;;35.60;17.67;;;4.90;99.90;;;;;;4162025;28;20377;-77
2021/05/28 00:53:28;;;;;;;32.63;17.55;;;4.90;99.90;;;;;;4163517;28;20079;-77
2021/05/28 00:55:29;;;;;;;33.97;17.27;;;4.90;99.90;;;;;;4178323;28;20025;-77
2021/05/28 00:57:31;;;;;;;33.45;17.60;;;4.90;99.90;;;;;;4154105;28;20038;-77
2021/05/28 00:59:31;;;;;;;33.78;16.67;;;4.90;99.90;;;;;;4161939;28;20471;-77
2021/05/28 01:01:33;;;;;;;28.58;17.10;;;4.80;99.90;;;;;;4163184;28;20034;-77
2021/05/28 01:03:34;;;;;;;28.05;15.70;;;4.80;99.90;;;;;;4161873;28;20057;-77
2021/05/28 01:05:35;;;;;;;31.30;16.30;;;4.70;99.90;;;;;;4163315;28;20056;-77
2021/05/28 01:07:36;;;;;;;32.78;17.00;;;4.90;99.90;;;;;;4160615;28;20030;-77
2021/05/28 01:09:36;;;;;;;29.63;16.25;;;4.60;99.90;;;;;;4152295;28;20541;-77
2021/05/28 01:11:37;;;;;;;29.67;17.25;;;4.50;99.90;;;;;;4152472;28;20030;-77
2021/05/28 01:13:38;;;;;;;33.10;17.15;;;4.50;99.90;;;;;;4160999;28;20034;-77
2021/05/28 01:15:39;;;;;;;32.30;17.45;;;4.50;99.90;;;;;;4168886;28;20458;-77
2021/05/28 01:17:40;;;;;;;41.08;19.00;;;4.50;99.90;;;;;;4151248;28;20034;-77
2021/05/28 01:19:40;;;;;;;32.70;17.65;;;4.40;99.90;;;;;;4149019;28;20369;-77
2021/05/28 01:21:43;;;;;;;40.25;17.60;;;4.40;99.90;;;;;;4161354;28;20071;-77
2021/05/28 01:23:44;;;;;;;44.90;20.27;;;4.40;99.90;;;;;;4160999;28;20029;-77
2021/05/28 01:25:44;;;;;;;36.22;17.58;;;4.40;99.90;;;;;;4167786;28;20399;-78
2021/05/28 01:27:45;;;;;;;27.80;14.20;;;4.10;99.90;;;;;;4162125;28;20048;-77
2021/05/28 01:29:46;;;;;;;27.60;14.82;;;4.30;99.90;;;;;;4161628;28;20635;-77
2021/05/28 01:31:47;;;;;;;43.38;18.73;;;4.60;99.90;;;;;;4160455;28;20022;-77
2021/05/28 01:33:48;;;;;;;37.35;18.67;;;4.40;99.90;;;;;;4160515;28;20687;-77
2021/05/28 01:35:48;;;;;;;39.83;19.05;;;4.20;99.90;;;;;;4160376;28;20037;-77
2021/05/28 01:37:49;;;;;;;34.45;17.33;;;4.00;99.90;;;;;;4160650;28;20036;-77
2021/05/28 01:39:52;;;;;;;38.97;18.73;;;4.30;99.90;;;;;;4161804;28;20399;-77
2021/05/28 01:41:53;;;;;;;41.50;19.98;;;4.30;99.90;;;;;;4160717;28;20021;-77
2021/05/28 01:43:53;;;;;;;43.88;19.70;;;4.30;99.90;;;;;;4161486;28;20045;-78
2021/05/28 01:45:54;;;;;;;41.58;20.67;;;4.60;99.90;;;;;;4161987;28;20076;-78
2021/05/28 01:47:55;;;;;;;40.90;19.65;;;4.20;99.90;;;;;;4162556;28;20365;-77
2021/05/28 01:49:56;;;;;;;44.88;20.40;;;4.10;99.90;;;;;;4162962;28;20041;-77
2021/05/28 01:51:57;;;;;;;34.97;19.58;;;4.40;99.90;;;;;;4164156;28;20033;-76
2021/05/28 01:53:57;;;;;;;29.63;17.05;;;4.30;99.90;;;;;;4165938;28;20037;-79
2021/05/28 01:55:58;;;;;;;38.53;18.48;;;4.20;99.90;;;;;;4166475;28;20168;-77
2021/05/28 01:57:59;;;;;;;34.80;19.38;;;4.20;99.90;;;;;;4166007;28;20053;-77
2021/05/28 01:59:59;;;;;;;29.80;15.85;;;4.20;99.90;;;;;;4166031;28;20032;-76
2021/05/28 02:02:01;;;;;;;37.05;18.48;;;4.20;99.90;;;;;;4166344;28;20109;-77
2021/05/28 02:04:03;;;;;;;41.58;17.42;;;4.10;99.90;;;;;;4165731;28;20033;-77
2021/05/28 02:06:03;;;;;;;38.92;19.55;;;4.30;99.90;;;;;;4164657;28;20404;-77
2021/05/28 02:08:05;;;;;;;36.40;18.05;;;4.30;99.90;;;;;;4165885;28;20037;-77
2021/05/28 02:10:07;;;;;;;37.78;18.98;;;4.40;99.90;;;;;;4166353;28;20033;-78
2021/05/28 02:12:08;;;;;;;49.78;19.35;;;4.30;99.90;;;;;;4165914;28;20038;-78
2021/05/28 02:14:09;;;;;;;97.60;24.92;;;4.30;99.90;;;;;;4164446;28;20037;-78
2021/05/28 02:16:11;;;;;;;83.40;24.58;;;4.10;99.90;;;;;;4166365;28;20053;-77
2021/05/28 02:18:12;;;;;;;165.80;27.10;;;4.30;99.90;;;;;;4164545;28;20033;-78
2021/05/28 02:20:13;;;;;;;187.68;29.88;;;4.30;99.90;;;;;;4165618;28;20392;-77
2021/05/28 02:22:14;;;;;;;176.60;30.55;;;4.40;99.90;;;;;;4165841;28;20049;-76
2021/05/28 02:24:18;;;;;;;92.63;23.73;;;4.60;99.90;;;;;;4165682;28;20108;-76
2021/05/28 02:26:19;;;;;;;137.57;26.80;;;4.60;99.90;;;;;;4164396;28;20049;-78
2021/05/28 02:28:20;;;;;;;147.25;27.42;;;4.50;99.90;;;;;;4164342;28;20030;-76
2021/05/28 02:30:20;;;;;;;116.55;26.80;;;4.90;99.90;;;;;;4164576;28;20448;-76
2021/05/28 02:32:21;;;;;;;157.90;29.75;;;4.60;99.90;;;;;;4164291;28;20107;-77
2021/05/28 02:34:22;;;;;;;187.57;33.45;;;4.10;99.90;;;;;;4165297;28;20067;-77
2021/05/28 02:36:22;;;;;;;114.78;25.52;;;4.40;99.90;;;;;;4165132;28;20036;-77
2021/05/28 02:38:23;;;;;;;102.07;24.52;;;4.60;99.90;;;;;;4165598;28;20037;-77
2021/05/28 02:40:23;;;;;;;157.73;25.90;;;4.70;99.90;;;;;;4165260;28;20384;-77
2021/05/28 02:42:24;;;;;;;153.98;29.95;;;4.70;99.90;;;;;;4165388;28;20033;-77
2021/05/28 02:44:25;;;;;;;133.68;25.02;;;4.70;99.90;;;;;;4163382;28;20112;-78
2021/05/28 02:46:29;;;;;;;216.27;36.30;;;4.70;99.90;;;;;;4165264;28;20500;-78
2021/05/28 02:48:30;;;;;;;101.63;25.92;;;4.60;99.90;;;;;;4162028;28;20067;-78
2021/05/28 02:50:32;;;;;;;132.15;27.70;;;4.70;99.90;;;;;;4163855;28;20029;-77
2021/05/28 02:52:33;;;;;;;89.43;20.50;;;4.20;99.90;;;;;;4165423;28;20043;-77
2021/05/28 02:54:33;;;;;;;100.60;20.10;;;4.70;99.90;;;;;;4160194;28;20336;-77
2021/05/28 02:56:34;;;;;;;214.73;35.15;;;4.70;99.90;;;;;;4161757;28;20022;-77
2021/05/28 02:58:35;;;;;;;139.93;29.25;;;4.90;99.90;;;;;;4161777;28;20103;-77
2021/05/28 03:00:36;;;;;;;113.72;22.52;;;4.90;99.90;;;;;;4164593;28;20385;-77
2021/05/28 03:02:37;;;;;;;122.70;26.48;;;5.00;99.90;;;;;;4165092;28;20030;-77
2021/05/28 03:04:37;;;;;;;83.32;22.02;;;5.00;99.90;;;;;;4162914;28;20502;-76
2021/05/28 03:06:38;;;;;;;90.03;21.55;;;4.90;99.90;;;;;;4164895;28;20045;-77
2021/05/28 03:08:39;;;;;;;72.30;19.90;;;5.10;99.90;;;;;;4165205;28;20025;-77
2021/05/28 03:10:39;;;;;;;87.30;21.58;;;5.10;99.90;;;;;;4164959;28;20025;-76
2021/05/28 03:12:40;;;;;;;74.00;19.77;;;5.20;99.90;;;;;;4163457;28;20054;-76
2021/05/28 03:14:42;;;;;;;102.88;22.30;;;5.20;99.90;;;;;;4163129;28;20033;-77
2021/05/28 03:16:43;;;;;;;96.20;25.10;;;5.10;99.90;;;;;;4164940;28;20033;-76
2021/05/28 03:18:50;;;;;;;231.50;37.55;;;5.10;99.90;;;;;;4163594;28;20091;-76
2021/05/28 03:20:56;;;;;;;81.28;25.02;;;5.10;99.90;;;;;;4164855;28;20128;-76
2021/05/28 03:22:57;;;;;;;115.72;27.15;;;5.40;99.90;;;;;;4163442;28;20033;-77
2021/05/28 03:25:07;;;;;;;144.45;30.75;;;5.40;99.90;;;;;;4165207;28;20036;-77
2021/05/28 03:27:08;;;;;;;160.30;33.55;;;5.20;99.90;;;;;;4164781;28;20037;-77
2021/05/28 03:29:08;;;;;;;71.78;23.77;;;5.20;99.90;;;;;;4163134;28;20033;-77
2021/05/28 03:31:13;;;;;;;103.25;26.88;;;5.30;99.90;;;;;;4164168;28;20079;-77
2021/05/28 03:33:13;;;;;;;152.88;32.05;;;5.30;99.90;;;;;;4163273;28;20029;-77
2021/05/28 03:35:14;;;;;;;139.73;31.55;;;5.40;99.90;;;;;;4163726;28;20194;-77
2021/05/28 03:37:15;;;;;;;197.38;37.63;;;5.40;99.90;;;;;;4164178;28;20389;-77
2021/05/28 03:39:16;;;;;;;150.63;31.00;;;4.60;99.90;;;;;;4163320;28;20476;-76
2021/05/28 03:41:16;;;;;;;161.77;38.25;;;5.50;99.90;;;;;;4162496;28;20436;-77
2021/05/28 03:43:17;;;;;;;139.50;35.40;;;5.70;99.90;;;;;;4163610;28;20116;-77
2021/05/28 03:45:18;;;;;;;145.95;32.15;;;5.60;99.90;;;;;;4161938;28;20036;-77
2021/05/28 03:47:20;;;;;;;166.70;34.28;;;5.60;99.90;;;;;;4162240;28;20477;-77
2021/05/28 03:49:24;;;;;;;252.07;43.10;;;5.70;99.90;;;;;;4163463;28;20034;-77
2021/05/28 03:51:24;;;;;;;204.13;40.40;;;5.70;99.90;;;;;;4163245;28;20040;-76
2021/05/28 03:53:25;;;;;;;136.77;29.88;;;5.60;99.90;;;;;;4163227;28;20029;-76
2021/05/28 03:55:26;;;;;;;257.25;44.22;;;5.70;99.90;;;;;;4163408;28;20380;-77
2021/05/28 03:57:26;;;;;;;153.48;31.13;;;5.70;99.90;;;;;;4161713;28;20045;-77
2021/05/28 03:59:27;;;;;;;186.27;36.55;;;5.70;99.90;;;;;;4163268;28;20113;-76
2021/05/28 04:01:27;;;;;;;126.28;33.20;;;5.80;99.90;;;;;;4164296;28;20048;-77
2021/05/28 04:03:28;;;;;;;139.98;31.40;;;5.80;99.90;;;;;;4164082;28;20029;-77
2021/05/28 04:05:29;;;;;;;162.73;34.85;;;5.80;99.90;;;;;;4164091;28;20121;-77
2021/05/28 04:07:29;;;;;;;261.00;42.83;;;5.80;99.90;;;;;;4164042;28;20388;-77
2021/05/28 04:09:30;;;;;;;179.77;36.97;;;5.70;99.90;;;;;;4157055;28;20096;-77
2021/05/28 04:11:31;;;;;;;123.13;30.38;;;5.80;99.90;;;;;;4156039;28;20033;-77
2021/05/28 04:13:32;;;;;;;148.45;31.75;;;5.70;99.90;;;;;;4163927;28;20025;-77
2021/05/28 04:15:33;;;;;;;111.25;27.27;;;5.70;99.90;;;;;;4162465;28;20503;-77
2021/05/28 04:17:34;;;;;;;154.38;32.53;;;5.70;99.90;;;;;;4161876;28;20036;-77
2021/05/28 04:19:35;;;;;;;83.53;26.55;;;6.50;99.90;;;;;;4152371;28;20025;-77
2021/05/28 04:21:35;;;;;;;84.40;26.65;;;5.80;99.90;;;;;;4150436;28;20481;-77
2021/05/28 04:23:36;;;;;;;128.40;29.00;;;5.70;99.90;;;;;;4156039;28;20090;-77
2021/05/28 04:25:37;;;;;;;183.63;36.25;;;5.80;99.90;;;;;;4161212;28;20100;-77
2021/05/28 04:27:37;;;;;;;153.13;33.88;;;5.80;99.90;;;;;;4162763;28;20108;-76
2021/05/28 04:29:38;;;;;;;75.28;25.15;;;5.90;99.90;;;;;;4162778;28;20032;-77
2021/05/28 04:31:39;;;;;;;98.22;25.50;;;5.70;99.90;;;;;;4160740;28;20021;-77
2021/05/28 04:33:39;;;;;;;185.73;32.38;;;6.00;99.90;;;;;;4154889;28;20120;-77
2021/05/28 04:35:40;;;;;;;186.57;36.72;;;5.90;99.90;;;;;;4159627;28;20034;-77
2021/05/28 04:37:41;;;;;;;251.52;39.60;;;6.10;99.90;;;;;;4163613;28;20041;-77
2021/05/28 04:39:41;;;;;;;192.73;35.80;;;5.40;99.90;;;;;;4163042;28;20033;-77
2021/05/28 04:41:43;;;;;;;243.63;43.78;;;6.10;99.90;;;;;;4162943;28;20107;-77
2021/05/28 04:43:43;;;;;;;264.67;47.10;;;6.00;99.90;;;;;;4158590;28;20102;-77
2021/05/28 04:45:44;;;;;;;230.43;43.75;;;5.30;99.90;;;;;;4160280;28;20034;-77
2021/05/28 04:47:45;;;;;;;250.75;45.13;;;6.10;99.90;;;;;;4160372;28;20471;-77
2021/05/28 04:49:46;;;;;;;268.52;43.92;;;5.90;99.90;;;;;;4160146;28;20033;-77
2021/05/28 04:51:48;;;;;;;232.25;44.08;;;6.00;99.90;;;;;;4163066;28;20029;-77
2021/05/28 04:53:48;;;;;;;188.98;42.95;;;6.10;99.90;;;;;;4162639;28;20166;-77
2021/05/28 04:55:49;;;;;;;234.98;44.20;;;6.30;99.90;;;;;;4159951;28;20041;-77
2021/05/28 04:57:50;;;;;;;236.02;41.75;;;6.30;99.90;;;;;;4162617;28;20042;-77
2021/05/28 04:59:50;;;;;;;296.92;45.67;;;6.50;99.90;;;;;;4169733;28;20035;-77
2021/05/28 05:01:51;;;;;;;286.10;46.03;;;6.40;99.90;;;;;;4159125;28;20034;-77
2021/05/28 05:03:52;;;;;;;211.35;43.30;;;6.70;99.90;;;;;;4156155;28;20486;-77
2021/05/28 05:05:52;;;;;;;220.82;43.67;;;6.50;99.90;;;;;;4160390;28;20033;-76
2021/05/28 05:07:54;;;;;;;249.27;47.25;;;6.50;99.90;;;;;;4163531;28;20032;-75
2021/05/28 05:09:54;;;;;;;219.50;43.80;;;6.60;99.90;;;;;;4162137;28;20036;-76
2021/05/28 05:11:55;;;;;;;202.25;43.30;;;6.60;99.90;;;;;;4163295;28;20672;-76
2021/05/28 05:13:56;;;;;;;230.82;47.08;;;6.80;99.90;;;;;;4162903;28;20480;-76
2021/05/28 05:15:57;;;;;;;191.07;40.72;;;6.70;99.90;;;;;;4162071;28;20086;-76
2021/05/28 05:17:57;;;;;;;236.73;43.58;;;6.70;99.90;;;;;;4161922;28;20052;-76
2021/05/28 05:19:58;;;;;;;103.63;35.55;;;6.50;99.90;;;;;;4157908;28;20556;-76
2021/05/28 05:21:58;;;;;;;313.20;54.38;;;6.90;99.90;;;;;;4159744;28;20045;-76
2021/05/28 05:23:59;;;;;;;336.25;51.08;;;6.70;99.90;;;;;;4162957;28;20128;-76
2021/05/28 05:26:00;;;;;;;373.45;53.40;;;6.60;99.90;;;;;;4163161;28;20053;-77
2021/05/28 05:28:00;;;;;;;235.05;44.22;;;6.80;99.90;;;;;;4160370;28;20400;-77
2021/05/28 05:30:02;;;;;;;235.90;43.30;;;6.80;99.90;;;;;;4161086;28;20582;-77
2021/05/28 05:32:03;;;;;;;281.65;52.10;;;6.90;99.90;;;;;;4161559;28;20652;-77
2021/05/28 05:34:03;;;;;;;240.73;51.78;;;6.00;99.90;;;;;;4161269;28;20034;-77
2021/05/28 05:36:04;;;;;;;269.90;53.60;;;7.10;99.90;;;;;;4165396;28;20065;-77
2021/05/28 05:38:08;;;;;;;260.95;52.42;;;7.30;99.90;;;;;;4164677;28;20555;-77
2021/05/28 05:40:10;;;;;;;129.18;38.83;;;7.40;99.90;;;;;;4163044;28;20030;-77
2021/05/28 05:42:11;;;;;;;158.65;46.55;;;7.50;99.90;;;;;;4158087;28;20114;-77
2021/05/28 05:44:11;;;;;;;205.25;52.75;;;7.60;99.90;;;;;;4154442;28;20443;-78
2021/05/28 05:46:13;;;;;;;138.00;43.72;;;7.30;99.90;;;;;;4161283;28;20026;-77
2021/05/28 05:48:15;;;;;;;129.70;40.50;;;7.30;99.90;;;;;;4157493;28;20025;-78
2021/05/28 05:50:15;;;;;;;158.10;47.03;;;8.10;99.90;;;;;;4161509;28;20479;-77
2021/05/28 05:52:16;;;;;;;168.73;46.45;;;8.20;99.90;;;;;;4160977;28;20061;-77
2021/05/28 05:54:20;;;;;;;188.02;48.08;;;;;;;;;;4161618;28;20032;-77
2021/05/28 05:56:21;;;;;;;171.90;40.22;;;8.70;99.90;;;;;;4162371;28;20037;-77
2021/05/28 05:58:21;;;;;;;185.00;43.80;;;8.70;99.90;;;;;;4161246;28;20218;-77
2021/05/28 06:00:22;;;;;;;198.30;43.35;;;8.60;99.90;;;;;;4159163;28;20108;-77
2021/05/28 06:02:23;;;;;;;158.52;38.05;;;8.50;99.90;;;;;;4156236;28;20029;-77
2021/05/28 06:04:23;;;;;;;141.70;36.95;;;8.80;99.90;;;;;;4161311;28;20033;-77
2021/05/28 06:06:24;;;;;;;140.55;37.03;;;7.90;99.90;;;;;;4158293;28;20500;-77
2021/05/28 06:08:25;;;;;;;154.30;38.63;;;8.60;99.90;;;;;;4162307;28;20021;-77
2021/05/28 06:10:25;;;;;;;114.45;30.73;;;8.70;99.90;;;;;;4156922;28;20030;-77
2021/05/28 06:12:27;;;;;;;188.88;40.50;;;8.80;99.90;;;;;;4162287;28;20538;-77
2021/05/28 06:14:28;;;;;;;132.88;34.80;;;8.90;99.90;;;;;;4160845;28;20037;-77
2021/05/28 06:16:28;;;;;;;121.78;32.47;;;8.90;99.90;;;;;;4161899;28;20083;-77
2021/05/28 06:18:29;;;;;;;129.45;32.85;;;8.90;99.90;;;;;;4151917;28;20078;-77
2021/05/28 06:20:30;;;;;;;91.25;29.92;;;9.10;99.90;;;;;;4156929;28;20084;-77
2021/05/28 06:22:32;;;;;;;107.50;30.65;;;;;;;;;;4162548;28;20034;-77
2021/05/28 06:24:33;;;;;;;110.97;30.65;;;9.20;99.90;;;;;;4160262;28;20037;-77
2021/05/28 06:26:34;;;;;;;100.65;30.80;;;9.40;99.90;;;;;;4155447;28;20130;-77
2021/05/28 06:28:34;;;;;;;124.40;33.80;;;9.60;99.90;;;;;;4159596;28;20052;-76
2021/05/28 06:30:35;;;;;;;143.00;34.28;;;9.60;99.90;;;;;;4156458;28;20034;-73
2021/05/28 06:32:36;;;;;;;78.65;28.67;;;9.40;99.90;;;;;;4158410;28;20531;-73
2021/05/28 06:34:37;;;;;;;83.68;28.02;;;9.60;99.90;;;;;;4159034;28;20412;-73
2021/05/28 06:36:38;;;;;;;99.53;31.30;;;9.80;99.90;;;;;;4161922;28;20105;-72
2021/05/28 06:38:38;;;;;;;92.65;31.77;;;9.70;99.90;;;;;;4162144;28;20041;-73
2021/05/28 06:40:39;;;;;;;84.13;30.80;;;9.60;99.90;;;;;;4154388;28;20030;-73
2021/05/28 06:42:40;;;;;;;92.72;28.23;;;9.60;99.90;;;;;;4163404;28;20600;-73
2021/05/28 06:44:41;;;;;;;62.75;27.63;;;9.80;99.90;;;;;;4164921;28;20064;-73
2021/05/28 06:46:42;;;;;;;77.38;31.58;;;9.90;99.90;;;;;;4164274;28;20037;-74
2021/05/28 06:48:43;;;;;;;56.47;25.65;;;10.10;99.90;;;;;;4162698;28;20094;-73
2021/05/28 06:50:44;;;;;;;60.88;27.80;;;10.20;99.90;;;;;;4161227;28;20396;-73
2021/05/28 06:52:46;;;;;;;44.13;24.42;;;;;;;;;;4165119;28;20080;-73
2021/05/28 06:54:47;;;;;;;57.63;25.48;;;10.70;99.90;;;;;;4163974;28;20095;-73
2021/05/28 06:56:48;;;;;;;57.80;24.40;;;10.80;99.90;;;;;;4160635;28;20028;-73
2021/05/28 06:58:50;;;;;;;52.88;24.13;;;10.90;99.90;;;;;;4164753;28;20122;-73
2021/05/28 07:00:51;;;;;;;33.10;21.15;;;10.70;99.90;;;;;;4164196;28;20091;-73
2021/05/28 07:02:55;;;;;;;35.35;20.35;;;10.80;99.90;;;;;;4162676;28;20072;-73
2021/05/28 07:04:55;;;;;;;24.80;17.63;;;10.90;99.90;;;;;;4164536;28;20038;-73
2021/05/28 07:06:56;;;;;;;23.60;15.80;;;11.00;99.90;;;;;;4163561;28;20160;-73
2021/05/28 07:08:57;;;;;;;22.80;14.45;;;11.20;99.90;;;;;;4161473;28;20501;-73
2021/05/28 07:10:57;;;;;;;21.58;13.63;;;11.20;99.90;;;;;;4162551;28;20039;-73
2021/05/28 07:12:58;;;;;;;14.70;12.80;;;11.30;99.90;;;;;;4163372;28;20088;-73
2021/05/28 07:14:59;;;;;;;20.92;12.68;;;11.30;99.90;;;;;;4164667;28;20042;-73
2021/05/28 07:17:00;;;;;;;18.63;12.70;;;11.50;99.90;;;;;;4163063;28;20030;-73
2021/05/28 07:19:00;;;;;;;14.35;11.73;;;11.50;99.90;;;;;;4164687;28;20029;-73
2021/05/28 07:21:02;;;;;;;14.55;10.43;;;11.90;99.90;;;;;;4164702;28;20038;-73
2021/05/28 07:23:02;;;;;;;15.02;9.45;;;12.00;99.90;;;;;;4163566;28;20087;-73
2021/05/28 07:25:04;;;;;;;15.77;10.40;;;12.20;99.90;;;;;;4153011;28;20037;-72
2021/05/28 07:27:05;;;;;;;11.02;9.45;;;12.20;99.90;;;;;;4153280;28;20034;-73
2021/05/28 07:29:05;;;;;;;11.95;10.25;;;12.40;99.90;;;;;;4159343;28;20052;-73
2021/05/28 07:31:06;;;;;;;14.23;10.15;;;12.40;99.90;;;;;;4164130;28;20033;-73
2021/05/28 07:33:07;;;;;;;11.93;8.98;;;12.10;99.90;;;;;;4160023;28;20029;-73
2021/05/28 07:35:09;;;;;;;11.70;9.82;;;11.80;99.90;;;;;;4163837;28;20041;-73
2021/05/28 07:37:09;;;;;;;12.82;10.05;;;11.60;99.90;;;;;;4163622;28;20117;-74
2021/05/28 07:39:10;;;;;;;16.02;9.73;;;11.50;99.90;;;;;;4156671;28;20030;-73
2021/05/28 07:41:11;;;;;;;15.57;10.93;;;11.40;99.90;;;;;;4161945;28;20190;-73
2021/05/28 07:43:11;;;;;;;13.48;10.38;;;11.30;99.90;;;;;;4159439;28;20038;-74
2021/05/28 07:45:14;;;;;;;17.63;11.38;;;11.20;99.90;;;;;;4164054;28;20029;-73
2021/05/28 07:47:15;;;;;;;12.63;11.40;;;11.10;99.90;;;;;;4163391;28;20056;-73
2021/05/28 07:49:15;;;;;;;15.05;11.13;;;11.00;99.90;;;;;;4160972;28;20033;-74
2021/05/28 07:51:16;;;;;;;12.52;11.25;;;11.00;99.90;;;;;;4158606;28;20034;-73
2021/05/28 07:53:23;;;;;;;13.02;10.68;;;11.10;99.90;;;;;;4163407;28;20029;-74
2021/05/28 07:55:23;;;;;;;15.27;11.02;;;10.90;99.90;;;;;;4159098;28;20350;-73
2021/05/28 07:57:24;;;;;;;11.15;9.90;;;11.00;99.90;;;;;;4163312;28;20095;-74
2021/05/28 07:59:24;;;;;;;12.23;11.00;;;11.20;99.90;;;;;;4158055;28;20382;-74
2021/05/28 08:01:26;;;;;;;14.98;11.02;;;11.40;99.90;;;;;;4163920;28;20492;-74
2021/05/28 08:03:28;;;;;;;14.75;10.18;;;11.70;99.90;;;;;;4159186;28;20029;-74
2021/05/28 08:05:29;;;;;;;15.20;10.23;;;11.90;99.90;;;;;;4159635;28;20125;-74
2021/05/28 08:07:31;;;;;;;12.25;9.93;;;12.30;99.90;;;;;;4161867;28;20075;-74
2021/05/28 08:09:32;;;;;;;11.75;9.82;;;12.70;99.90;;;;;;4164043;28;20056;-73
2021/05/28 08:11:32;;;;;;;11.57;9.95;;;12.80;99.90;;;;;;4163650;28;20044;-73
2021/05/28 08:13:34;;;;;;;12.50;10.13;;;12.80;99.90;;;;;;4162936;28;20489;-74
2021/05/28 08:15:34;;;;;;;12.23;10.13;;;12.70;99.90;;;;;;4162677;28;20084;-74
2021/05/28 08:17:35;;;;;;;12.68;11.30;;;12.70;99.90;;;;;;4163500;28;20029;-73
2021/05/28 08:19:36;;;;;;;13.50;10.18;;;12.90;99.90;;;;;;4163990;28;20053;-74
2021/05/28 08:21:36;;;;;;;12.35;9.98;;;12.80;99.90;;;;;;4164043;28;20113;-74
2021/05/28 08:23:38;;;;;;;12.20;9.73;;;13.10;99.90;;;;;;4163962;28;20401;-73
2021/05/28 08:25:40;;;;;;;12.48;9.73;;;13.10;99.90;;;;;;4163993;28;20029;-73
2021/05/28 08:27:41;;;;;;;11.40;8.93;;;13.40;99.90;;;;;;4163948;28;20037;-74
2021/05/28 08:29:41;;;;;;;11.95;9.45;;;13.50;99.90;;;;;;4164138;28;20066;-73
2021/05/28 08:31:42;;;;;;;12.38;10.32;;;13.60;99.90;;;;;;4162658;28;20078;-74
2021/05/28 08:33:45;;;;;;;10.50;9.20;;;13.80;99.90;;;;;;4163424;28;20404;-73
2021/05/28 08:35:45;;;;;;;11.90;10.13;;;13.90;99.90;;;;;;4163796;28;20026;-73
2021/05/28 08:37:47;;;;;;;10.23;9.23;;;13.80;99.90;;;;;;4163584;28;20036;-73
2021/05/28 08:39:47;;;;;;;9.57;8.60;;;13.70;99.90;;;;;;4163080;28;20025;-73
2021/05/28 08:41:49;;;;;;;11.07;9.27;;;14.00;99.90;;;;;;4163501;28;20121;-73
2021/05/28 08:43:50;;;;;;;10.95;8.73;;;14.40;99.90;;;;;;4163251;28;20049;-73
2021/05/28 08:45:50;;;;;;;12.77;9.27;;;14.70;99.90;;;;;;4163170;28;20029;-73
2021/05/28 08:47:51;;;;;;;15.77;9.25;;;14.80;99.90;;;;;;4162960;28;20133;-73
2021/05/28 08:49:53;;;;;;;12.73;9.68;;;15.10;99.90;;;;;;4162600;28;20470;-73
2021/05/28 08:51:57;;;;;;;10.15;8.75;;;15.20;99.90;;;;;;4162144;28;20048;-73
2021/05/28 08:53:58;;;;;;;10.40;9.30;;;15.20;99.90;;;;;;4162615;28;20508;-73
2021/05/28 08:55:58;;;;;;;10.35;9.32;;;15.30;99.90;;;;;;4163211;28;20025;-73
2021/05/28 08:58:03;;;;;;;10.82;9.52;;;15.40;99.90;;;;;;4162820;28;20037;-73
2021/05/28 09:00:05;;;;;;;10.43;9.32;;;15.40;99.90;;;;;;4161319;28;20104;-73
2021/05/28 09:02:32;;;;;;;11.60;10.25;;;15.40;99.90;;;;;;4159275;28;20030;-73
2021/05/28 09:04:33;;;;;;;10.50;7.80;;;15.20;99.90;;;;;;4163193;28;20028;-73
2021/05/28 09:06:45;;;;;;;9.57;8.60;;;15.40;99.90;;;;;;4162835;28;20017;-73
2021/05/28 09:08:46;;;;;;;12.80;7.63;;;15.50;99.90;;;;;;4160801;28;20073;-73
2021/05/28 09:10:47;;;;;;;12.02;9.20;;;15.80;99.90;;;;;;4161436;28;20362;-73
2021/05/28 09:12:49;;;;;;;11.27;8.07;;;16.00;99.90;;;;;;4163211;28;20028;-73
2021/05/28 09:14:50;;;;;;;9.13;8.15;;;16.20;99.90;;;;;;4161600;28;20128;-73
2021/05/28 09:16:50;;;;;;;7.80;7.00;;;16.30;99.90;;;;;;4163194;28;20036;-73
2021/05/28 09:18:59;;;;;;;10.70;7.63;;;16.50;99.90;;;;;;4163061;28;20393;-73
2021/05/28 09:20:59;;;;;;;7.50;6.80;;;16.70;99.90;;;;;;4163018;28;20036;-73
2021/05/28 09:23:18;;;;;;;8.35;7.13;;;16.90;99.90;;;;;;4162760;28;20059;-73
2021/05/28 09:25:20;;;;;;;9.60;7.63;;;16.90;99.90;;;;;;4160548;28;20377;-73
2021/05/28 09:27:22;;;;;;;9.52;8.25;;;16.80;99.90;;;;;;4161772;28;20116;-73
2021/05/28 09:29:23;;;;;;;7.35;6.65;;;16.90;99.90;;;;;;4162444;28;20037;-73
2021/05/28 09:31:26;;;;;;;8.82;7.22;;;17.10;99.90;;;;;;4177799;28;20114;-73
2021/05/28 09:33:30;;;;;;;;;;;17.00;99.90;;;;;;4163057;28;20030;-73
2021/05/28 09:35:31;;;;;;;7.30;6.43;;;16.90;99.90;;;;;;4161636;28;19921;-72
2021/05/28 09:38:04;;;;;;;9.43;6.70;;;16.90;99.90;;;;;;4162844;28;20032;-73
2021/05/28 09:40:09;;;;;;;7.10;6.32;;;17.00;99.90;;;;;;4107902;28;20022;-73
2021/05/28 09:42:09;;;;;;;6.65;5.13;;;17.10;99.90;;;;;;4162960;28;20037;-72
2021/05/28 09:44:12;;;;;;;7.00;5.90;;;17.20;99.90;;;;;;4162562;28;20030;-72
2021/05/28 09:46:12;;;;;;;6.75;5.57;;;17.60;99.90;;;;;;4163655;28;20429;-73
2021/05/28 09:48:16;;;;;;;9.18;5.68;;;17.70;99.90;;;;;;4161505;28;20034;-72
2021/05/28 09:50:16;;;;;;;7.32;6.38;;;17.70;99.90;;;;;;4156918;28;20054;-73
2021/05/28 09:52:18;;;;;;;5.88;5.20;;;17.80;99.90;;;;;;4161343;28;20029;-73
2021/05/28 09:54:19;;;;;;;3.88;3.40;;;18.00;99.90;;;;;;4162870;28;20034;-73
2021/05/28 09:56:27;;;;;;;7.40;5.10;;;18.10;99.90;;;;;;4162752;28;20052;-73
2021/05/28 09:59:01;;;;;;;5.90;3.97;;;18.00;99.90;;;;;;4162038;28;20136;-72
2021/05/28 10:01:09;;;;;;;6.80;6.10;;;18.10;99.90;;;;;;4162651;28;20030;-73
2021/05/28 10:03:18;;;;;;;7.80;5.22;;;18.40;99.90;;;;;;4162477;28;20421;-72
2021/05/28 10:05:24;;;;;;;4.97;4.13;;;18.70;99.90;;;;;;4162769;28;20022;-72
2021/05/28 10:07:26;;;;;;;5.68;4.88;;;19.10;99.90;;;;;;4162977;28;20018;-72
2021/05/28 10:09:28;;;;;;;5.32;4.10;;;19.40;99.90;;;;;;4162887;28;20099;-73
2021/05/28 10:11:31;;;;;;;4.75;3.75;;;19.30;99.90;;;;;;4162729;28;20049;-72
2021/05/28 10:13:32;;;;;;;4.00;3.60;;;19.60;99.90;;;;;;4163258;28;20476;-72
2021/05/28 10:15:33;;;;;;;4.68;4.18;;;19.80;99.90;;;;;;4165933;28;20030;-72
2021/05/28 10:17:34;;;;;;;6.22;3.75;;;19.80;99.90;;;;;;4165451;28;20033;-72
2021/05/28 10:19:34;;;;;;;6.35;3.55;;;19.20;99.90;;;;;;4164787;28;20026;-73
2021/05/28 10:21:35;;;;;;;8.18;3.65;;;19.20;99.90;;;;;;4165696;28;20033;-73
2021/05/28 10:23:38;;;;;;;5.63;4.50;;;19.30;99.90;;;;;;4165454;28;20025;-72